Terminal Aerodrome Forecast
Issued by NWS

Home | Current Version | Previous Version | Text Only | Print | Product List | Glossary On
Versions: 1 2 3 4 5 6 7 8 9 10 11 12 13
000
FTUS45 KABQ 281138
TAFROW
TAF
KROW 281138Z 2812/2912 36011KT P6SM SCT200
      TEMPO 2812/2816 36011G21KT
     FM282000 05008KT P6SM FEW120
     FM290100 VRB06KT P6SM SCT120=

USA.gov is the U.S. government's official web portal to all federal, state and local government web resources and services.